createdAt,value
2018-07-05T00:00:22.110Z,99708
2018-07-05T00:01:27.665Z,99708
2018-07-05T00:02:33.098Z,99717
2018-07-05T00:03:38.385Z,99697
2018-07-05T00:04:43.544Z,99705
2018-07-05T00:05:48.984Z,99697
2018-07-05T00:06:54.548Z,99702
2018-07-05T00:08:00.019Z,99705
2018-07-05T00:09:05.476Z,99699
2018-07-05T00:10:11.173Z,99702
2018-07-05T00:11:16.341Z,99705
2018-07-05T00:12:21.239Z,99699
2018-07-05T00:13:41.029Z,99697
2018-07-05T00:14:46.207Z,99705
2018-07-05T00:15:51.612Z,99714
2018-07-05T00:16:57.086Z,99714
2018-07-05T00:18:01.969Z,99711
2018-07-05T00:19:07.393Z,99711
2018-07-05T00:20:12.553Z,99717
2018-07-05T00:21:17.997Z,99705
2018-07-05T00:22:23.696Z,99711
2018-07-05T00:23:28.291Z,99702
2018-07-05T00:24:34.229Z,99708
2018-07-05T00:25:39.677Z,99708
2018-07-05T00:26:44.839Z,99708
2018-07-05T00:27:50.244Z,99720
2018-07-05T00:28:55.412Z,99714
2018-07-05T00:30:00.864Z,99723
2018-07-05T00:31:06.182Z,99723
2018-07-05T00:32:11.340Z,99723
2018-07-05T00:33:16.789Z,99711
2018-07-05T00:34:22.118Z,99714
2018-07-05T00:35:27.272Z,99714
2018-07-05T00:36:32.720Z,99714
2018-07-05T00:37:37.333Z,99720
2018-07-05T00:38:42.499Z,99714
2018-07-05T00:39:48.201Z,99699
2018-07-05T00:40:53.361Z,99705
2018-07-05T00:41:58.515Z,99705
2018-07-05T00:43:03.929Z,99699
2018-07-05T00:44:08.830Z,99705
2018-07-05T00:45:14.016Z,99714
2018-07-05T00:46:19.953Z,99708
2018-07-05T00:47:25.112Z,99711
2018-07-05T00:48:30.274Z,99711
2018-07-05T00:49:35.166Z,99708
2018-07-05T00:50:40.088Z,99708
2018-07-05T00:51:45.853Z,99714
2018-07-05T00:52:51.293Z,99699
2018-07-05T00:53:56.449Z,99711
2018-07-05T00:55:01.597Z,99705
2018-07-05T00:56:06.486Z,99714
2018-07-05T00:57:11.934Z,99714
2018-07-05T00:58:17.500Z,99714
2018-07-05T00:59:22.663Z,99705
2018-07-05T01:00:28.428Z,99708
2018-07-05T01:01:33.616Z,99717
2018-07-05T01:02:38.773Z,99708
2018-07-05T01:03:44.139Z,99708
2018-07-05T01:04:49.289Z,99714
2018-07-05T01:05:53.881Z,99714
2018-07-05T01:06:59.575Z,99717
2018-07-05T01:08:04.461Z,99717
2018-07-05T01:09:09.337Z,99723
2018-07-05T01:10:15.090Z,99720
2018-07-05T01:11:20.286Z,99714
2018-07-05T01:12:25.280Z,99714
2018-07-05T01:13:30.438Z,99714
2018-07-05T01:14:35.884Z,99708
2018-07-05T01:15:41.081Z,99714
2018-07-05T01:16:45.683Z,99708
2018-07-05T01:17:51.140Z,99717
2018-07-05T01:18:55.994Z,99720
2018-07-05T01:20:01.446Z,99720
2018-07-05T01:21:06.069Z,99711
2018-07-05T01:22:11.637Z,99714
2018-07-05T01:23:16.817Z,99720
2018-07-05T01:24:22.268Z,99708
2018-07-05T01:25:27.382Z,99711
2018-07-05T01:26:32.555Z,99714
2018-07-05T01:27:37.572Z,99717
2018-07-05T01:28:42.756Z,99708
2018-07-05T01:29:47.975Z,99717
2018-07-05T01:30:53.351Z,99714
2018-07-05T01:31:58.825Z,99717
2018-07-05T01:33:04.277Z,99720
2018-07-05T01:34:10.132Z,99723
2018-07-05T01:35:15.306Z,99714
2018-07-05T01:36:20.773Z,99708
2018-07-05T01:37:40.818Z,99708
2018-07-05T01:38:45.982Z,99708
2018-07-05T01:39:51.691Z,99708
2018-07-05T01:40:56.861Z,99714
2018-07-05T01:42:01.753Z,99714
2018-07-05T01:43:07.162Z,99711
2018-07-05T01:44:11.761Z,99717
2018-07-05T01:45:16.911Z,99714
2018-07-05T01:46:22.636Z,99705
2018-07-05T01:47:28.070Z,99708
2018-07-05T01:48:33.852Z,99717
2018-07-05T01:49:39.296Z,99705
2018-07-05T01:50:44.738Z,99717
2018-07-05T01:51:50.430Z,99723
2018-07-05T01:52:55.888Z,99717
2018-07-05T01:54:00.485Z,99714
2018-07-05T01:55:05.596Z,99714
2018-07-05T01:56:10.206Z,99717
2018-07-05T01:57:15.091Z,99714
2018-07-05T01:58:20.203Z,99705
2018-07-05T01:59:24.849Z,99708
2018-07-05T02:00:30.091Z,99705
2018-07-05T02:01:35.580Z,99708
2018-07-05T02:02:40.756Z,99702
2018-07-05T02:03:46.039Z,99723
2018-07-05T02:04:51.489Z,99708
2018-07-05T02:05:56.374Z,99714
2018-07-05T02:07:01.951Z,99705
2018-07-05T02:08:07.148Z,99708
2018-07-05T02:09:12.022Z,99705
2018-07-05T02:10:17.550Z,99717
2018-07-05T02:11:22.985Z,99711
2018-07-05T02:12:28.513Z,99714
2018-07-05T02:13:33.967Z,99697
2018-07-05T02:14:39.407Z,99702
2018-07-05T02:15:45.163Z,99700
2018-07-05T02:16:50.603Z,99705
2018-07-05T02:17:55.788Z,99700
2018-07-05T02:19:01.486Z,99708
2018-07-05T02:20:06.362Z,99691
2018-07-05T02:21:11.294Z,99705
2018-07-05T02:22:17.091Z,99714
2018-07-05T02:23:21.993Z,99702
2018-07-05T02:24:27.323Z,99694
2018-07-05T02:25:32.490Z,99702
2018-07-05T02:26:37.931Z,99700
2018-07-05T02:27:43.778Z,99691
2018-07-05T02:28:49.239Z,99700
2018-07-05T02:29:54.674Z,99694
2018-07-05T02:31:00.397Z,99694
2018-07-05T02:32:05.849Z,99694
2018-07-05T02:33:11.302Z,99702
2018-07-05T02:34:16.249Z,99702
2018-07-05T02:35:21.417Z,99708
2018-07-05T02:36:26.984Z,99699
2018-07-05T02:37:32.434Z,99699
2018-07-05T02:38:37.869Z,99705
2018-07-05T02:39:43.452Z,99688
2018-07-05T02:40:48.892Z,99694
2018-07-05T02:41:54.346Z,99699
2018-07-05T02:43:00.039Z,99699
2018-07-05T02:44:05.191Z,99699
2018-07-05T02:45:10.362Z,99702
2018-07-05T02:46:16.047Z,99699
2018-07-05T02:47:21.209Z,99697
2018-07-05T02:48:26.444Z,99705
2018-07-05T02:49:31.905Z,99708
2018-07-05T02:50:37.074Z,99694
2018-07-05T02:51:42.866Z,99697
2018-07-05T02:52:48.311Z,99697
2018-07-05T02:53:53.470Z,99694
2018-07-05T02:54:59.332Z,99685
2018-07-05T02:56:03.933Z,99688
2018-07-05T02:57:09.383Z,99699
2018-07-05T02:58:14.891Z,99691
2018-07-05T02:59:20.339Z,99694
2018-07-05T03:00:25.563Z,99699
2018-07-05T03:01:30.466Z,99699
2018-07-05T03:02:35.643Z,99694
2018-07-05T03:03:41.331Z,99702
2018-07-05T03:04:46.780Z,99696
2018-07-05T03:05:52.223Z,99688
2018-07-05T03:06:57.918Z,99682
2018-07-05T03:08:02.775Z,99696
2018-07-05T03:09:07.662Z,99688
2018-07-05T03:10:13.064Z,99685
2018-07-05T03:11:18.513Z,99685
2018-07-05T03:12:23.957Z,99685
2018-07-05T03:13:30.030Z,99694
2018-07-05T03:14:35.467Z,99694
2018-07-05T03:15:41.177Z,99688
2018-07-05T03:16:46.614Z,99691
2018-07-05T03:17:51.811Z,99688
2018-07-05T03:18:57.501Z,99702
2018-07-05T03:20:02.667Z,99705
2018-07-05T03:21:07.841Z,99691
2018-07-05T03:22:13.335Z,99699
2018-07-05T03:23:18.776Z,99702
2018-07-05T03:24:23.923Z,99711
2018-07-05T03:25:44.004Z,99702
2018-07-05T03:26:49.493Z,99714
2018-07-05T03:27:55.201Z,99708
2018-07-05T03:29:00.087Z,99705
2018-07-05T03:30:05.528Z,99708
2018-07-05T03:31:11.220Z,99696
2018-07-05T03:32:16.652Z,99702
2018-07-05T03:33:22.096Z,99708
2018-07-05T03:34:27.752Z,99702
2018-07-05T03:35:33.199Z,99711
2018-07-05T03:36:38.713Z,99714
2018-07-05T03:37:43.858Z,99711
2018-07-05T03:38:49.014Z,99708
2018-07-05T03:40:39.039Z,99711
2018-07-05T03:41:44.227Z,99720
2018-07-05T03:42:49.788Z,99714
2018-07-05T03:43:54.944Z,99711
2018-07-05T03:45:00.096Z,99699
2018-07-05T03:46:05.219Z,99711
2018-07-05T03:47:10.386Z,99705
2018-07-05T03:48:15.268Z,99699
2018-07-05T03:49:20.996Z,99705
2018-07-05T03:50:26.431Z,99696
2018-07-05T03:51:32.245Z,99705
2018-07-05T03:52:37.288Z,99711
2018-07-05T03:53:42.734Z,99714
2018-07-05T03:54:48.534Z,99725
2018-07-05T03:55:53.695Z,99720
2018-07-05T03:56:58.853Z,99717
2018-07-05T03:58:04.665Z,99722
2018-07-05T03:59:09.539Z,99722
2018-07-05T04:00:14.421Z,99722
2018-07-05T04:01:19.848Z,99717
2018-07-05T04:02:25.299Z,99714
2018-07-05T04:03:30.794Z,99720
2018-07-05T04:04:36.372Z,99717
2018-07-05T04:05:41.918Z,99720
2018-07-05T04:06:47.659Z,99720
2018-07-05T04:07:52.525Z,99731
2018-07-05T04:08:57.966Z,99720
2018-07-05T04:10:33.403Z,99717
2018-07-05T04:11:38.554Z,99720
2018-07-05T04:12:44.065Z,99717
2018-07-05T04:13:49.508Z,99722
2018-07-05T04:14:54.948Z,99725
2018-07-05T04:16:00.345Z,99722
2018-07-05T04:17:04.954Z,99722
2018-07-05T04:18:09.547Z,99720
2018-07-05T04:19:15.377Z,99720
2018-07-05T04:20:19.990Z,99717
2018-07-05T04:21:24.891Z,99728
2018-07-05T04:22:30.575Z,99720
2018-07-05T04:23:36.016Z,99714
2018-07-05T04:24:41.819Z,99714
2018-07-05T04:25:47.016Z,99722
2018-07-05T04:26:52.469Z,99720
2018-07-05T04:27:58.266Z,99720
2018-07-05T04:29:03.161Z,99705
2018-07-05T04:30:08.043Z,99714
2018-07-05T04:31:13.344Z,99714
2018-07-05T04:32:18.787Z,99702
2018-07-05T04:33:23.953Z,99705
2018-07-05T04:34:30.271Z,99722
2018-07-05T04:35:35.140Z,99708
2018-07-05T04:36:40.565Z,99705
2018-07-05T04:37:45.724Z,99711
2018-07-05T04:38:51.179Z,99714
2018-07-05T04:39:57.064Z,99705
2018-07-05T04:41:02.495Z,99705
2018-07-05T04:42:07.927Z,99702
2018-07-05T04:43:13.843Z,99708
2018-07-05T04:44:18.905Z,99714
2018-07-05T04:45:23.824Z,99720
2018-07-05T04:46:30.222Z,99702
2018-07-05T04:47:35.397Z,99705
2018-07-05T04:48:41.089Z,99702
2018-07-05T04:49:45.977Z,99702
2018-07-05T04:50:51.420Z,99702
2018-07-05T04:51:57.272Z,99711
2018-07-05T04:53:02.454Z,99708
2018-07-05T04:54:07.337Z,99711
2018-07-05T04:55:13.044Z,99702
2018-07-05T04:56:18.481Z,99705
2018-07-05T04:57:23.924Z,99717
2018-07-05T04:58:29.670Z,99705
2018-07-05T04:59:35.123Z,99717
2018-07-05T05:00:40.524Z,99702
2018-07-05T05:01:45.698Z,99699
2018-07-05T05:02:50.862Z,99711
2018-07-05T05:03:56.267Z,99705
2018-07-05T05:05:01.425Z,99717
2018-07-05T05:06:06.031Z,99708
2018-07-05T05:07:11.503Z,99717
2018-07-05T05:08:16.682Z,99711
2018-07-05T05:09:21.290Z,99705
2018-07-05T05:10:41.080Z,99717
2018-07-05T05:11:45.953Z,99708
2018-07-05T05:12:51.508Z,99705
2018-07-05T05:13:56.947Z,99702
2018-07-05T05:15:02.575Z,99696
2018-07-05T05:16:08.740Z,99696
2018-07-05T05:17:14.180Z,99705
2018-07-05T05:18:18.788Z,99696
2018-07-05T05:19:24.595Z,99691
2018-07-05T05:20:29.775Z,99699
2018-07-05T05:21:35.649Z,99702
2018-07-05T05:22:41.084Z,99693
2018-07-05T05:23:45.409Z,99699
2018-07-05T05:24:51.210Z,99693
2018-07-05T05:25:56.668Z,99702
2018-07-05T05:27:01.836Z,99696
2018-07-05T05:28:07.396Z,99702
2018-07-05T05:29:12.857Z,99702
2018-07-05T05:30:18.294Z,99708
2018-07-05T05:31:23.746Z,99705
2018-07-05T05:32:29.191Z,99705
2018-07-05T05:33:34.480Z,99714
2018-07-05T05:34:39.631Z,99711
2018-07-05T05:35:44.811Z,99714
2018-07-05T05:36:50.233Z,99722
2018-07-05T05:37:55.664Z,99717
2018-07-05T05:39:00.967Z,99711
2018-07-05T05:40:06.116Z,99702
2018-07-05T05:41:11.557Z,99708
2018-07-05T05:42:16.738Z,99705
2018-07-05T05:43:22.151Z,99711
2018-07-05T05:44:27.008Z,99708
2018-07-05T05:45:32.271Z,99711
2018-07-05T05:46:37.742Z,99708
2018-07-05T05:47:42.977Z,99714
2018-07-05T05:48:48.680Z,99719
2018-07-05T05:49:54.115Z,99731
2018-07-05T05:50:59.585Z,99711
2018-07-05T05:52:04.767Z,99719
2018-07-05T05:53:10.212Z,99717
2018-07-05T05:54:14.783Z,99725
2018-07-05T05:55:20.581Z,99737
2018-07-05T05:56:26.026Z,99722
2018-07-05T05:57:31.036Z,99731
2018-07-05T05:58:36.476Z,99728
2018-07-05T05:59:41.956Z,99731
2018-07-05T06:00:47.645Z,99743
2018-07-05T06:01:53.190Z,99734
2018-07-05T06:02:59.045Z,99734
2018-07-05T06:04:04.463Z,99728
2018-07-05T06:05:09.911Z,99728
2018-07-05T06:06:15.086Z,99731
2018-07-05T06:07:20.933Z,99728
2018-07-05T06:08:26.111Z,99728
2018-07-05T06:09:31.774Z,99734
2018-07-05T06:10:37.227Z,99731
2018-07-05T06:11:42.682Z,99725
2018-07-05T06:12:47.926Z,99731
2018-07-05T06:13:53.078Z,99737
2018-07-05T06:14:58.255Z,99728
2018-07-05T06:16:03.321Z,99722
2018-07-05T06:17:08.499Z,99722
2018-07-05T06:18:13.990Z,99728
2018-07-05T06:19:19.425Z,99725
2018-07-05T06:20:24.577Z,99734
2018-07-05T06:21:30.008Z,99737
2018-07-05T06:22:35.194Z,99734
2018-07-05T06:23:39.799Z,99731
2018-07-05T06:24:45.367Z,99728
2018-07-05T06:25:50.824Z,99734
2018-07-05T06:26:56.297Z,99740
2018-07-05T06:28:01.861Z,99731
2018-07-05T06:29:06.482Z,99740
2018-07-05T06:30:11.355Z,99731
2018-07-05T06:31:16.779Z,99731
2018-07-05T06:32:22.260Z,99737
2018-07-05T06:33:27.648Z,99731
2018-07-05T06:34:33.111Z,99746
2018-07-05T06:35:38.553Z,99725
2018-07-05T06:36:43.487Z,99728
2018-07-05T06:37:48.366Z,99737
2018-07-05T06:38:53.242Z,99734
2018-07-05T06:39:58.386Z,99731
2018-07-05T06:41:03.251Z,99743
2018-07-05T06:42:07.863Z,99743
2018-07-05T06:43:13.290Z,99737
2018-07-05T06:44:18.731Z,99743
2018-07-05T06:45:24.178Z,99740
2018-07-05T06:46:43.792Z,99737
2018-07-05T06:47:49.009Z,99740
2018-07-05T06:48:54.231Z,99743
2018-07-05T06:49:59.127Z,99743
2018-07-05T06:51:04.012Z,99737
2018-07-05T06:52:09.154Z,99737
2018-07-05T06:53:14.020Z,99737
2018-07-05T06:54:19.215Z,99728
2018-07-05T06:55:25.054Z,99745
2018-07-05T06:56:30.235Z,99734
2018-07-05T06:57:35.787Z,99731
2018-07-05T06:58:40.964Z,99728
2018-07-05T06:59:46.441Z,99743
2018-07-05T07:00:51.855Z,99737
2018-07-05T07:01:57.026Z,99734
2018-07-05T07:03:02.475Z,99734
2018-07-05T07:04:08.115Z,99740
2018-07-05T07:05:13.772Z,99740
2018-07-05T07:06:18.926Z,99743
2018-07-05T07:07:23.775Z,99751
2018-07-05T07:08:29.239Z,99748
2018-07-05T07:09:34.675Z,99745
2018-07-05T07:10:40.128Z,99745
2018-07-05T07:11:46.087Z,99745
2018-07-05T07:12:51.650Z,99740
2018-07-05T07:13:56.812Z,99743
2018-07-05T07:15:02.283Z,99734
2018-07-05T07:16:08.357Z,99748
2018-07-05T07:17:13.426Z,99740
2018-07-05T07:18:18.586Z,99737
2018-07-05T07:19:23.738Z,99740
2018-07-05T07:20:28.905Z,99734
2018-07-05T07:21:34.919Z,99740
2018-07-05T07:22:40.657Z,99740
2018-07-05T07:23:45.538Z,99751
2018-07-05T07:24:50.943Z,99734
2018-07-05T07:25:55.828Z,99737
2018-07-05T07:27:01.274Z,99740
2018-07-05T07:28:06.529Z,99754
2018-07-05T07:29:11.407Z,99742
2018-07-05T07:30:16.576Z,99742
2018-07-05T07:31:22.580Z,99745
2018-07-05T07:32:27.382Z,99740
2018-07-05T07:33:32.791Z,99754
2018-07-05T07:34:37.761Z,99745
2018-07-05T07:35:42.929Z,99745
2018-07-05T07:36:48.977Z,99742
2018-07-05T07:37:53.866Z,99745
2018-07-05T07:38:58.780Z,99748
2018-07-05T07:40:04.191Z,99748
2018-07-05T07:41:09.383Z,99748
2018-07-05T07:42:14.830Z,99754
2018-07-05T07:43:20.001Z,99757
2018-07-05T07:44:25.171Z,99751
2018-07-05T07:45:31.115Z,99740
2018-07-05T07:46:37.395Z,99754
2018-07-05T07:47:42.546Z,99754
2018-07-05T07:48:47.958Z,99748
2018-07-05T07:49:52.552Z,99748
2018-07-05T07:50:57.740Z,99757
2018-07-05T07:52:02.871Z,99754
2018-07-05T07:53:08.046Z,99742
2018-07-05T07:54:13.214Z,99748
2018-07-05T07:55:18.407Z,99742
2018-07-05T07:56:23.280Z,99742
2018-07-05T07:57:29.228Z,99745
2018-07-05T07:58:34.136Z,99745
2018-07-05T07:59:39.319Z,99737
2018-07-05T08:00:44.646Z,99754
2018-07-05T08:01:50.102Z,99740
2018-07-05T08:02:55.625Z,99740
2018-07-05T08:04:01.144Z,99737
2018-07-05T08:05:05.487Z,99742
2018-07-05T08:06:10.099Z,99748
2018-07-05T08:07:15.703Z,99742
2018-07-05T08:08:20.581Z,99734
2018-07-05T08:09:25.823Z,99737
2018-07-05T08:10:30.727Z,99737
2018-07-05T08:11:35.597Z,99745
2018-07-05T08:12:40.481Z,99740
2018-07-05T08:13:45.086Z,99737
2018-07-05T08:14:50.542Z,99740
2018-07-05T08:15:56.267Z,99731
2018-07-05T08:17:01.427Z,99745
2018-07-05T08:18:06.589Z,99734
2018-07-05T08:19:11.886Z,99734
2018-07-05T08:20:17.331Z,99740
2018-07-05T08:21:22.990Z,99734
2018-07-05T08:22:28.999Z,99742
2018-07-05T08:23:33.881Z,99731
2018-07-05T08:24:39.581Z,99734
2018-07-05T08:25:45.031Z,99740
2018-07-05T08:26:49.900Z,99742
2018-07-05T08:27:55.690Z,99734
2018-07-05T08:29:00.858Z,99737
2018-07-05T08:30:05.738Z,99737
2018-07-05T08:31:10.614Z,99734
2018-07-05T08:32:15.512Z,99734
2018-07-05T08:33:20.953Z,99742
2018-07-05T08:34:26.083Z,99737
2018-07-05T08:35:30.629Z,99734
2018-07-05T08:36:36.473Z,99731
2018-07-05T08:37:41.954Z,99731
2018-07-05T08:38:47.430Z,99731
2018-07-05T08:39:52.124Z,99725
2018-07-05T08:40:57.312Z,99734
2018-07-05T08:42:02.500Z,99731
2018-07-05T08:43:07.913Z,99725
2018-07-05T08:44:13.066Z,99728
2018-07-05T08:45:18.535Z,99725
2018-07-05T08:46:24.240Z,99742
2018-07-05T08:47:29.133Z,99722
2018-07-05T08:48:34.899Z,99725
2018-07-05T08:49:40.054Z,99731
2018-07-05T08:50:45.516Z,99713
2018-07-05T08:51:51.511Z,99716
2018-07-05T08:52:56.666Z,99731
2018-07-05T08:54:02.124Z,99719
2018-07-05T08:55:06.659Z,99719
2018-07-05T08:56:11.726Z,99713
2018-07-05T08:57:16.910Z,99713
2018-07-05T08:58:22.679Z,99722
2018-07-05T08:59:28.597Z,99708
2018-07-05T09:00:34.392Z,99716
2018-07-05T09:01:39.581Z,99710
2018-07-05T09:02:44.445Z,99711
2018-07-05T09:03:50.159Z,99708
2018-07-05T09:04:55.201Z,99708
2018-07-05T09:06:00.073Z,99713
2018-07-05T09:07:05.595Z,99696
2018-07-05T09:08:11.039Z,99710
2018-07-05T09:09:16.195Z,99710
2018-07-05T09:10:21.354Z,99708
2018-07-05T09:11:26.527Z,99696
2018-07-05T09:12:32.336Z,99690
2018-07-05T09:13:37.782Z,99699
2018-07-05T09:14:42.940Z,99693
2018-07-05T09:15:48.548Z,99696
2018-07-05T09:16:54.003Z,99693
2018-07-05T09:17:59.832Z,99684
2018-07-05T09:19:06.454Z,99690
2018-07-05T09:20:11.625Z,99687
2018-07-05T09:21:16.791Z,99690
2018-07-05T09:22:21.824Z,99696
2018-07-05T09:23:26.558Z,99687
2018-07-05T09:24:33.059Z,99690
2018-07-05T09:25:37.966Z,99696
2018-07-05T09:26:43.514Z,99687
2018-07-05T09:27:48.964Z,99690
2018-07-05T09:28:54.420Z,99696
2018-07-05T09:30:00.097Z,99693
2018-07-05T09:31:05.306Z,99696
2018-07-05T09:32:10.247Z,99713
2018-07-05T09:33:15.134Z,99699
2018-07-05T09:34:20.652Z,99696
2018-07-05T09:35:25.538Z,99699
2018-07-05T09:36:30.855Z,99696
2018-07-05T09:37:36.414Z,99702
2018-07-05T09:38:41.453Z,99696
2018-07-05T09:39:46.903Z,99699
2018-07-05T09:40:52.060Z,99710
2018-07-05T09:41:57.515Z,99696
2018-07-05T09:43:02.644Z,99708
2018-07-05T09:44:07.867Z,99710
2018-07-05T09:45:13.178Z,99699
2018-07-05T09:46:19.029Z,99705
2018-07-05T09:47:24.210Z,99696
2018-07-05T09:48:29.487Z,99693
2018-07-05T09:49:34.646Z,99708
2018-07-05T09:50:40.099Z,99696
2018-07-05T09:51:45.338Z,99702
2018-07-05T09:52:50.813Z,99693
2018-07-05T09:53:56.916Z,99708
2018-07-05T09:55:01.887Z,99699
2018-07-05T09:56:06.479Z,99696
2018-07-05T09:57:11.650Z,99696
2018-07-05T09:58:17.377Z,99702
2018-07-05T09:59:22.287Z,99702
2018-07-05T10:00:27.841Z,99699
2018-07-05T10:01:32.452Z,99705
2018-07-05T10:02:37.613Z,99705
2018-07-05T10:03:43.835Z,99702
2018-07-05T10:04:49.834Z,99708
2018-07-05T10:05:55.283Z,99713
2018-07-05T10:07:00.798Z,99699
2018-07-05T10:08:05.946Z,99702
2018-07-05T10:09:11.270Z,99696
2018-07-05T10:10:17.115Z,99693
2018-07-05T10:11:21.995Z,99708
2018-07-05T10:12:27.809Z,99696
2018-07-05T10:13:34.036Z,99693
2018-07-05T10:14:40.421Z,99699
2018-07-05T10:15:46.140Z,99699
2018-07-05T10:16:51.600Z,99690
2018-07-05T10:17:57.252Z,99690
2018-07-05T10:19:02.080Z,99687
2018-07-05T10:20:07.302Z,99684
2018-07-05T10:21:12.736Z,99687
2018-07-05T10:22:18.248Z,99687
2018-07-05T10:23:23.692Z,99690
2018-07-05T10:24:29.259Z,99687
2018-07-05T10:25:34.139Z,99679
2018-07-05T10:26:39.364Z,99693
2018-07-05T10:27:44.998Z,99687
2018-07-05T10:28:50.468Z,99676
2018-07-05T10:29:55.931Z,99690
2018-07-05T10:31:01.358Z,99687
2018-07-05T10:32:05.675Z,99690
2018-07-05T10:33:10.283Z,99690
2018-07-05T10:34:16.103Z,99690
2018-07-05T10:35:20.993Z,99690
2018-07-05T10:36:27.143Z,99693
2018-07-05T10:37:32.024Z,99696
2018-07-05T10:38:37.469Z,99690
2018-07-05T10:39:43.452Z,99699
2018-07-05T10:40:48.194Z,99696
2018-07-05T10:41:53.652Z,99696
2018-07-05T10:42:59.082Z,99696
2018-07-05T10:44:03.673Z,99696
2018-07-05T10:45:08.822Z,99705
2018-07-05T10:46:13.692Z,99693
2018-07-05T10:47:18.863Z,99693
2018-07-05T10:48:24.309Z,99699
2018-07-05T10:49:44.125Z,99696
2018-07-05T10:50:49.563Z,99696
2018-07-05T10:51:55.067Z,99705
2018-07-05T10:52:59.929Z,99699
2018-07-05T10:54:05.377Z,99699
2018-07-05T10:55:11.306Z,99699
2018-07-05T10:56:16.830Z,99699
2018-07-05T10:57:21.712Z,99708
2018-07-05T10:58:27.268Z,99696
2018-07-05T10:59:32.453Z,99710
2018-07-05T11:00:37.964Z,99699
2018-07-05T11:01:43.320Z,99707
2018-07-05T11:02:48.209Z,99705
2018-07-05T11:03:53.628Z,99702
2018-07-05T11:04:58.492Z,99693
2018-07-05T11:06:03.079Z,99699
2018-07-05T11:07:08.106Z,99702
2018-07-05T11:08:13.548Z,99699
2018-07-05T11:09:19.008Z,99696
2018-07-05T11:10:25.044Z,99699
2018-07-05T11:11:30.212Z,99693
2018-07-05T11:12:35.901Z,99693
2018-07-05T11:13:40.221Z,99693
2018-07-05T11:14:45.219Z,99693
2018-07-05T11:15:51.328Z,99696
2018-07-05T11:16:56.219Z,99684
2018-07-05T11:18:01.664Z,99696
2018-07-05T11:19:07.185Z,99687
2018-07-05T11:20:12.081Z,99690
2018-07-05T11:21:17.241Z,99687
2018-07-05T11:22:22.685Z,99681
2018-07-05T11:23:28.330Z,99672
2018-07-05T11:24:34.019Z,99684
2018-07-05T11:25:39.479Z,99693
2018-07-05T11:26:44.927Z,99684
2018-07-05T11:27:50.632Z,99693
2018-07-05T11:28:56.070Z,99684
2018-07-05T11:30:01.455Z,99675
2018-07-05T11:31:06.299Z,99678
2018-07-05T11:32:11.209Z,99681
2018-07-05T11:33:16.096Z,99675
2018-07-05T11:34:21.943Z,99690
2018-07-05T11:35:27.132Z,99678
2018-07-05T11:36:32.411Z,99687
2018-07-05T11:37:37.854Z,99690
2018-07-05T11:38:42.435Z,99693
2018-07-05T11:39:47.848Z,99678
2018-07-05T11:40:53.028Z,99681
2018-07-05T11:41:58.471Z,99687
2018-07-05T11:43:03.375Z,99684
2018-07-05T11:44:08.750Z,99696
2018-07-05T11:45:13.915Z,99678
2018-07-05T11:46:19.061Z,99684
2018-07-05T11:47:24.705Z,99687
2018-07-05T11:48:30.097Z,99687
2018-07-05T11:49:34.715Z,99684
2018-07-05T11:50:39.660Z,99693
2018-07-05T11:51:45.699Z,99693
2018-07-05T11:52:50.602Z,99681
2018-07-05T11:53:56.074Z,99687
2018-07-05T11:55:01.982Z,99687
2018-07-05T11:56:06.203Z,99696
2018-07-05T11:57:11.075Z,99687
2018-07-05T11:58:16.875Z,99701
2018-07-05T11:59:22.033Z,99696
2018-07-05T12:00:27.096Z,99695
2018-07-05T12:01:32.565Z,99693
2018-07-05T12:02:37.450Z,99693
2018-07-05T12:03:42.926Z,99687
2018-07-05T12:04:48.378Z,99687
2018-07-05T12:05:53.541Z,99684
2018-07-05T12:06:59.230Z,99684
2018-07-05T12:08:04.130Z,99678
2018-07-05T12:09:08.738Z,99675
2018-07-05T12:10:14.208Z,99675
2018-07-05T12:11:19.392Z,99672
2018-07-05T12:13:44.628Z,99672
2018-07-05T12:14:50.080Z,99669
2018-07-05T12:15:55.976Z,99669
2018-07-05T12:17:00.873Z,99672
2018-07-05T12:18:05.759Z,99678
2018-07-05T12:19:11.228Z,99675
2018-07-05T12:20:16.692Z,99684
2018-07-05T12:21:22.133Z,99678
2018-07-05T12:22:27.949Z,99690
2018-07-05T12:23:33.117Z,99681
2018-07-05T12:24:38.649Z,99681
2018-07-05T12:25:44.086Z,99684
2018-07-05T12:26:49.532Z,99672
2018-07-05T12:27:55.263Z,99681
2018-07-05T12:29:00.773Z,99684
2018-07-05T12:30:05.760Z,99678
2018-07-05T12:31:10.990Z,99684
2018-07-05T12:32:16.443Z,99684
2018-07-05T12:33:21.919Z,99684
2018-07-05T12:34:27.600Z,99684
2018-07-05T12:35:33.055Z,99690
2018-07-05T12:36:38.849Z,99687
2018-07-05T12:37:44.143Z,99692
2018-07-05T12:38:49.595Z,99687
2018-07-05T12:39:55.009Z,99687
2018-07-05T12:41:00.175Z,99684
2018-07-05T12:42:05.341Z,99684
2018-07-05T12:43:10.373Z,99690
2018-07-05T12:44:15.578Z,99687
2018-07-05T12:45:21.024Z,99690
2018-07-05T12:46:41.435Z,99678
2018-07-05T12:47:46.634Z,99681
2018-07-05T12:48:52.183Z,99675
2018-07-05T12:49:57.375Z,99675
2018-07-05T12:51:02.253Z,99675
2018-07-05T12:52:07.757Z,99669
2018-07-05T12:53:12.916Z,99675
2018-07-05T12:54:18.356Z,99672
2018-07-05T12:55:23.518Z,99675
2018-07-05T12:56:28.961Z,99663
2018-07-05T12:57:34.256Z,99669
2018-07-05T12:58:40.072Z,99666
2018-07-05T12:59:45.233Z,99663
2018-07-05T13:00:50.673Z,99672
2018-07-05T13:01:55.841Z,99660
2018-07-05T13:03:01.280Z,99669
2018-07-05T13:04:06.991Z,99672
2018-07-05T13:05:12.971Z,99666
2018-07-05T13:06:18.419Z,99669
2018-07-05T13:07:24.168Z,99669
2018-07-05T13:08:29.253Z,99658
2018-07-05T13:09:34.688Z,99675
2018-07-05T13:10:39.989Z,99672
2018-07-05T13:11:44.878Z,99669
2018-07-05T13:12:50.520Z,99675
2018-07-05T13:13:56.265Z,99675
2018-07-05T13:15:01.709Z,99664
2018-07-05T13:16:06.006Z,99672
2018-07-05T13:17:11.506Z,99669
2018-07-05T13:18:17.429Z,99669
2018-07-05T13:19:23.233Z,99664
2018-07-05T13:20:27.819Z,99666
2018-07-05T13:21:33.509Z,99666
2018-07-05T13:22:38.093Z,99664
2018-07-05T13:23:43.549Z,99669
2018-07-05T13:24:49.245Z,99661
2018-07-05T13:25:54.719Z,99649
2018-07-05T13:27:00.384Z,99661
2018-07-05T13:28:05.611Z,99664
2018-07-05T13:29:10.218Z,99652
2018-07-05T13:30:15.705Z,99667
2018-07-05T13:31:21.408Z,99652
2018-07-05T13:32:26.855Z,99664
2018-07-05T13:33:32.555Z,99664
2018-07-05T13:34:37.991Z,99672
2018-07-05T13:35:43.645Z,99658
2018-07-05T13:36:48.494Z,99664
2018-07-05T13:37:53.939Z,99655
2018-07-05T13:38:59.377Z,99661
2018-07-05T13:40:04.083Z,99661
2018-07-05T13:41:07.831Z,99655
2018-07-05T13:42:12.980Z,99664
2018-07-05T13:43:18.150Z,99661
2018-07-05T13:44:23.718Z,99672
2018-07-05T13:45:29.682Z,99667
2018-07-05T13:46:35.402Z,99667
2018-07-05T13:47:40.568Z,99664
2018-07-05T13:48:46.313Z,99672
2018-07-05T13:49:51.753Z,99664
2018-07-05T13:50:56.643Z,99661
2018-07-05T13:52:01.481Z,99664
2018-07-05T13:53:06.081Z,99667
2018-07-05T13:54:11.530Z,99661
2018-07-05T13:55:16.574Z,99664
2018-07-05T13:56:22.022Z,99664
2018-07-05T13:57:27.584Z,99661
2018-07-05T13:58:33.027Z,99658
2018-07-05T13:59:38.199Z,99658
2018-07-05T14:00:43.760Z,99655
2018-07-05T14:01:48.925Z,99661
2018-07-05T14:02:53.284Z,99667
2018-07-05T14:03:59.291Z,99675
2018-07-05T14:05:04.768Z,99673